sensor_id;sensor_type;location;lat;lon;timestamp;P1;durP1;ratioP1;P2;durP2;ratioP2
52948;SDS011;38812;50.942;3.644;2023-09-19T00:01:32;13.57;;;2.30;;
52948;SDS011;38812;50.942;3.644;2023-09-19T00:03:57;9.98;;;2.05;;
52948;SDS011;38812;50.942;3.644;2023-09-19T00:06:23;12.23;;;2.22;;
52948;SDS011;38812;50.942;3.644;2023-09-19T00:08:51;12.02;;;2.35;;
52948;SDS011;38812;50.942;3.644;2023-09-19T00:11:17;11.35;;;2.40;;
52948;SDS011;38812;50.942;3.644;2023-09-19T00:13:42;12.75;;;2.42;;
52948;SDS011;38812;50.942;3.644;2023-09-19T00:16:08;15.38;;;3.33;;
52948;SDS011;38812;50.942;3.644;2023-09-19T00:18:39;9.82;;;2.22;;
52948;SDS011;38812;50.942;3.644;2023-09-19T00:21:04;17.00;;;2.35;;
52948;SDS011;38812;50.942;3.644;2023-09-19T00:23:30;15.85;;;1.98;;
52948;SDS011;38812;50.942;3.644;2023-09-19T00:26:00;10.35;;;2.72;;
52948;SDS011;38812;50.942;3.644;2023-09-19T00:28:26;14.88;;;2.38;;
52948;SDS011;38812;50.942;3.644;2023-09-19T00:30:52;10.02;;;2.55;;
52948;SDS011;38812;50.942;3.644;2023-09-19T00:33:19;8.75;;;1.98;;
52948;SDS011;38812;50.942;3.644;2023-09-19T00:35:51;8.07;;;2.45;;
52948;SDS011;38812;50.942;3.644;2023-09-19T00:38:18;16.52;;;2.88;;
52948;SDS011;38812;50.942;3.644;2023-09-19T00:40:49;13.60;;;2.42;;
52948;SDS011;38812;50.942;3.644;2023-09-19T00:43:16;13.77;;;2.50;;
52948;SDS011;38812;50.942;3.644;2023-09-19T00:45:42;8.63;;;2.38;;
52948;SDS011;38812;50.942;3.644;2023-09-19T00:48:10;17.00;;;2.70;;
52948;SDS011;38812;50.942;3.644;2023-09-19T00:50:36;10.73;;;2.35;;
52948;SDS011;38812;50.942;3.644;2023-09-19T00:53:06;15.73;;;2.53;;
52948;SDS011;38812;50.942;3.644;2023-09-19T00:55:33;13.80;;;2.20;;
52948;SDS011;38812;50.942;3.644;2023-09-19T00:57:59;13.35;;;3.10;;
52948;SDS011;38812;50.942;3.644;2023-09-19T01:00:25;9.95;;;2.35;;
52948;SDS011;38812;50.942;3.644;2023-09-19T01:02:51;15.05;;;4.32;;
52948;SDS011;38812;50.942;3.644;2023-09-19T01:05:17;14.88;;;2.72;;
52948;SDS011;38812;50.942;3.644;2023-09-19T01:07:43;12.73;;;3.33;;
52948;SDS011;38812;50.942;3.644;2023-09-19T01:10:16;15.98;;;3.05;;
52948;SDS011;38812;50.942;3.644;2023-09-19T01:20:37;10.73;;;2.30;;
52948;SDS011;38812;50.942;3.644;2023-09-19T01:23:23;22.92;;;4.18;;
52948;SDS011;38812;50.942;3.644;2023-09-19T01:26:05;16.60;;;2.33;;
52948;SDS011;38812;50.942;3.644;2023-09-19T01:32:01;15.90;;;3.80;;
52948;SDS011;38812;50.942;3.644;2023-09-19T01:34:43;17.30;;;2.63;;
52948;SDS011;38812;50.942;3.644;2023-09-19T01:37:12;17.45;;;2.25;;
52948;SDS011;38812;50.942;3.644;2023-09-19T01:39:39;9.90;;;2.67;;
52948;SDS011;38812;50.942;3.644;2023-09-19T01:42:13;16.80;;;2.75;;
52948;SDS011;38812;50.942;3.644;2023-09-19T01:47:48;9.93;;;2.13;;
52948;SDS011;38812;50.942;3.644;2023-09-19T01:56:00;14.77;;;2.78;;
52948;SDS011;38812;50.942;3.644;2023-09-19T01:58:34;13.95;;;3.33;;
52948;SDS011;38812;50.942;3.644;2023-09-19T02:01:04;14.63;;;3.13;;
52948;SDS011;38812;50.942;3.644;2023-09-19T02:03:31;18.88;;;3.33;;
52948;SDS011;38812;50.942;3.644;2023-09-19T02:06:00;11.43;;;2.70;;
52948;SDS011;38812;50.942;3.644;2023-09-19T02:08:25;7.50;;;2.42;;
52948;SDS011;38812;50.942;3.644;2023-09-19T02:10:51;20.23;;;3.65;;
52948;SDS011;38812;50.942;3.644;2023-09-19T02:13:21;25.02;;;3.40;;
52948;SDS011;38812;50.942;3.644;2023-09-19T02:15:51;15.50;;;3.25;;
52948;SDS011;38812;50.942;3.644;2023-09-19T02:18:16;13.98;;;2.75;;
52948;SDS011;38812;50.942;3.644;2023-09-19T02:20:42;13.15;;;2.33;;
52948;SDS011;38812;50.942;3.644;2023-09-19T02:23:08;12.45;;;2.20;;
52948;SDS011;38812;50.942;3.644;2023-09-19T02:25:34;16.10;;;3.25;;
52948;SDS011;38812;50.942;3.644;2023-09-19T02:28:04;21.05;;;2.85;;
52948;SDS011;38812;50.942;3.644;2023-09-19T02:30:30;16.25;;;2.15;;
52948;SDS011;38812;50.942;3.644;2023-09-19T02:32:56;14.73;;;2.75;;
52948;SDS011;38812;50.942;3.644;2023-09-19T02:35:21;12.40;;;2.42;;
52948;SDS011;38812;50.942;3.644;2023-09-19T02:37:47;21.35;;;2.55;;
52948;SDS011;38812;50.942;3.644;2023-09-19T02:40:13;17.38;;;2.67;;
52948;SDS011;38812;50.942;3.644;2023-09-19T02:42:52;9.07;;;2.17;;
52948;SDS011;38812;50.942;3.644;2023-09-19T02:45:19;15.00;;;3.35;;
52948;SDS011;38812;50.942;3.644;2023-09-19T02:47:45;13.13;;;2.13;;
52948;SDS011;38812;50.942;3.644;2023-09-19T02:50:14;12.43;;;1.90;;
52948;SDS011;38812;50.942;3.644;2023-09-19T02:52:43;14.55;;;2.35;;
52948;SDS011;38812;50.942;3.644;2023-09-19T02:55:09;20.15;;;2.85;;
52948;SDS011;38812;50.942;3.644;2023-09-19T02:57:35;11.70;;;2.17;;
52948;SDS011;38812;50.942;3.644;2023-09-19T03:00:05;11.73;;;2.30;;
52948;SDS011;38812;50.942;3.644;2023-09-19T03:02:35;13.25;;;3.25;;
52948;SDS011;38812;50.942;3.644;2023-09-19T03:05:01;10.30;;;2.17;;
52948;SDS011;38812;50.942;3.644;2023-09-19T03:07:28;12.13;;;2.60;;
52948;SDS011;38812;50.942;3.644;2023-09-19T03:09:53;10.20;;;2.28;;
52948;SDS011;38812;50.942;3.644;2023-09-19T03:12:20;12.57;;;2.47;;
52948;SDS011;38812;50.942;3.644;2023-09-19T03:14:45;9.98;;;2.30;;
52948;SDS011;38812;50.942;3.644;2023-09-19T03:17:11;15.25;;;2.10;;
52948;SDS011;38812;50.942;3.644;2023-09-19T03:19:36;19.67;;;2.65;;
52948;SDS011;38812;50.942;3.644;2023-09-19T03:22:04;11.55;;;2.20;;
52948;SDS011;38812;50.942;3.644;2023-09-19T03:24:29;14.65;;;2.53;;
52948;SDS011;38812;50.942;3.644;2023-09-19T03:26:56;18.35;;;2.35;;
52948;SDS011;38812;50.942;3.644;2023-09-19T03:29:22;21.50;;;3.60;;
52948;SDS011;38812;50.942;3.644;2023-09-19T03:31:47;10.88;;;2.30;;
52948;SDS011;38812;50.942;3.644;2023-09-19T03:34:13;16.65;;;2.55;;
52948;SDS011;38812;50.942;3.644;2023-09-19T03:36:38;19.08;;;2.35;;
52948;SDS011;38812;50.942;3.644;2023-09-19T03:39:05;11.82;;;2.58;;
52948;SDS011;38812;50.942;3.644;2023-09-19T03:41:31;15.95;;;2.92;;
52948;SDS011;38812;50.942;3.644;2023-09-19T03:43:58;10.10;;;1.95;;
52948;SDS011;38812;50.942;3.644;2023-09-19T03:46:23;23.40;;;2.78;;
52948;SDS011;38812;50.942;3.644;2023-09-19T03:48:49;13.05;;;2.88;;
52948;SDS011;38812;50.942;3.644;2023-09-19T03:51:15;15.38;;;2.67;;
52948;SDS011;38812;50.942;3.644;2023-09-19T03:53:40;15.98;;;2.97;;
52948;SDS011;38812;50.942;3.644;2023-09-19T03:56:06;18.73;;;2.85;;
52948;SDS011;38812;50.942;3.644;2023-09-19T03:58:31;14.70;;;3.08;;
52948;SDS011;38812;50.942;3.644;2023-09-19T04:00:57;20.80;;;5.80;;
52948;SDS011;38812;50.942;3.644;2023-09-19T04:03:23;19.38;;;2.95;;
52948;SDS011;38812;50.942;3.644;2023-09-19T04:05:49;26.63;;;4.43;;
52948;SDS011;38812;50.942;3.644;2023-09-19T04:08:15;17.05;;;2.83;;
52948;SDS011;38812;50.942;3.644;2023-09-19T04:10:44;14.57;;;3.38;;
52948;SDS011;38812;50.942;3.644;2023-09-19T04:13:10;16.17;;;2.47;;
52948;SDS011;38812;50.942;3.644;2023-09-19T04:15:36;12.38;;;2.45;;
52948;SDS011;38812;50.942;3.644;2023-09-19T04:18:02;10.60;;;2.35;;
52948;SDS011;38812;50.942;3.644;2023-09-19T04:20:28;20.80;;;2.38;;
52948;SDS011;38812;50.942;3.644;2023-09-19T04:22:53;16.33;;;2.65;;
52948;SDS011;38812;50.942;3.644;2023-09-19T04:25:19;17.67;;;2.45;;
52948;SDS011;38812;50.942;3.644;2023-09-19T04:27:45;11.02;;;2.58;;
52948;SDS011;38812;50.942;3.644;2023-09-19T04:30:14;13.55;;;2.50;;
52948;SDS011;38812;50.942;3.644;2023-09-19T04:32:40;15.93;;;2.50;;
52948;SDS011;38812;50.942;3.644;2023-09-19T04:35:09;15.68;;;2.65;;
52948;SDS011;38812;50.942;3.644;2023-09-19T04:37:39;19.58;;;3.00;;
52948;SDS011;38812;50.942;3.644;2023-09-19T04:40:06;16.98;;;2.80;;
52948;SDS011;38812;50.942;3.644;2023-09-19T04:42:42;14.98;;;3.03;;
52948;SDS011;38812;50.942;3.644;2023-09-19T04:45:08;20.02;;;3.00;;
52948;SDS011;38812;50.942;3.644;2023-09-19T04:47:36;13.63;;;2.33;;
52948;SDS011;38812;50.942;3.644;2023-09-19T04:50:08;16.13;;;2.80;;
52948;SDS011;38812;50.942;3.644;2023-09-19T04:52:38;17.02;;;3.08;;
52948;SDS011;38812;50.942;3.644;2023-09-19T04:55:04;14.70;;;3.17;;
52948;SDS011;38812;50.942;3.644;2023-09-19T04:57:30;11.10;;;2.17;;
52948;SDS011;38812;50.942;3.644;2023-09-19T04:59:56;15.65;;;2.63;;
52948;SDS011;38812;50.942;3.644;2023-09-19T05:02:22;17.10;;;2.30;;
52948;SDS011;38812;50.942;3.644;2023-09-19T05:04:47;13.18;;;2.83;;
52948;SDS011;38812;50.942;3.644;2023-09-19T05:07:13;11.77;;;2.80;;
52948;SDS011;38812;50.942;3.644;2023-09-19T05:09:38;12.13;;;3.05;;
52948;SDS011;38812;50.942;3.644;2023-09-19T05:12:04;19.33;;;2.95;;
52948;SDS011;38812;50.942;3.644;2023-09-19T05:14:29;16.10;;;2.63;;
52948;SDS011;38812;50.942;3.644;2023-09-19T05:16:55;15.52;;;3.20;;
52948;SDS011;38812;50.942;3.644;2023-09-19T05:19:20;17.23;;;3.03;;
52948;SDS011;38812;50.942;3.644;2023-09-19T05:21:45;15.93;;;3.05;;
52948;SDS011;38812;50.942;3.644;2023-09-19T05:24:12;17.40;;;3.20;;
52948;SDS011;38812;50.942;3.644;2023-09-19T05:26:39;16.98;;;3.47;;
52948;SDS011;38812;50.942;3.644;2023-09-19T05:29:05;17.65;;;3.95;;
52948;SDS011;38812;50.942;3.644;2023-09-19T05:31:33;16.73;;;3.00;;
52948;SDS011;38812;50.942;3.644;2023-09-19T05:34:01;15.98;;;3.35;;
52948;SDS011;38812;50.942;3.644;2023-09-19T05:36:26;16.42;;;2.67;;
52948;SDS011;38812;50.942;3.644;2023-09-19T05:38:54;18.73;;;3.08;;
52948;SDS011;38812;50.942;3.644;2023-09-19T05:41:20;15.05;;;2.47;;
52948;SDS011;38812;50.942;3.644;2023-09-19T05:43:48;9.52;;;2.05;;
52948;SDS011;38812;50.942;3.644;2023-09-19T05:46:15;11.75;;;2.83;;
52948;SDS011;38812;50.942;3.644;2023-09-19T05:48:40;15.38;;;3.53;;
52948;SDS011;38812;50.942;3.644;2023-09-19T05:51:06;16.42;;;2.55;;
52948;SDS011;38812;50.942;3.644;2023-09-19T05:53:32;18.50;;;2.97;;
52948;SDS011;38812;50.942;3.644;2023-09-19T05:55:57;16.08;;;2.63;;
52948;SDS011;38812;50.942;3.644;2023-09-19T05:58:26;14.35;;;3.00;;
52948;SDS011;38812;50.942;3.644;2023-09-19T06:00:51;18.60;;;3.03;;
52948;SDS011;38812;50.942;3.644;2023-09-19T06:03:17;11.20;;;2.47;;
52948;SDS011;38812;50.942;3.644;2023-09-19T06:05:43;14.77;;;2.45;;
52948;SDS011;38812;50.942;3.644;2023-09-19T06:08:11;16.92;;;3.15;;
52948;SDS011;38812;50.942;3.644;2023-09-19T06:10:36;13.20;;;2.50;;
52948;SDS011;38812;50.942;3.644;2023-09-19T06:13:02;13.13;;;2.70;;
52948;SDS011;38812;50.942;3.644;2023-09-19T06:18:00;14.43;;;2.60;;
52948;SDS011;38812;50.942;3.644;2023-09-19T06:20:27;14.88;;;2.50;;
52948;SDS011;38812;50.942;3.644;2023-09-19T06:22:53;13.35;;;3.28;;
52948;SDS011;38812;50.942;3.644;2023-09-19T06:25:19;14.40;;;2.25;;
52948;SDS011;38812;50.942;3.644;2023-09-19T06:27:45;18.92;;;2.05;;
52948;SDS011;38812;50.942;3.644;2023-09-19T06:30:11;12.18;;;3.25;;
52948;SDS011;38812;50.942;3.644;2023-09-19T06:32:38;19.05;;;2.55;;
52948;SDS011;38812;50.942;3.644;2023-09-19T06:35:03;14.40;;;2.42;;
52948;SDS011;38812;50.942;3.644;2023-09-19T06:37:32;19.00;;;2.88;;
52948;SDS011;38812;50.942;3.644;2023-09-19T06:39:59;14.45;;;3.20;;
52948;SDS011;38812;50.942;3.644;2023-09-19T06:42:25;16.52;;;2.85;;
52948;SDS011;38812;50.942;3.644;2023-09-19T06:44:50;20.23;;;3.33;;
52948;SDS011;38812;50.942;3.644;2023-09-19T06:47:16;20.23;;;2.58;;
52948;SDS011;38812;50.942;3.644;2023-09-19T06:49:42;14.43;;;3.47;;
52948;SDS011;38812;50.942;3.644;2023-09-19T06:52:10;11.38;;;2.80;;
52948;SDS011;38812;50.942;3.644;2023-09-19T06:54:36;14.40;;;2.70;;
52948;SDS011;38812;50.942;3.644;2023-09-19T06:57:02;14.90;;;2.83;;
52948;SDS011;38812;50.942;3.644;2023-09-19T06:59:28;13.68;;;2.20;;
52948;SDS011;38812;50.942;3.644;2023-09-19T07:01:53;9.63;;;1.95;;
52948;SDS011;38812;50.942;3.644;2023-09-19T07:04:19;10.85;;;2.42;;
52948;SDS011;38812;50.942;3.644;2023-09-19T07:06:44;15.98;;;2.00;;
52948;SDS011;38812;50.942;3.644;2023-09-19T07:09:14;11.48;;;2.15;;
52948;SDS011;38812;50.942;3.644;2023-09-19T07:11:40;18.48;;;2.97;;
52948;SDS011;38812;50.942;3.644;2023-09-19T07:14:05;11.20;;;3.00;;
52948;SDS011;38812;50.942;3.644;2023-09-19T07:16:31;16.42;;;3.30;;
52948;SDS011;38812;50.942;3.644;2023-09-19T07:18:56;11.73;;;3.75;;
52948;SDS011;38812;50.942;3.644;2023-09-19T07:21:22;15.30;;;3.97;;
52948;SDS011;38812;50.942;3.644;2023-09-19T07:23:49;16.10;;;4.00;;
52948;SDS011;38812;50.942;3.644;2023-09-19T07:26:15;11.10;;;2.63;;
52948;SDS011;38812;50.942;3.644;2023-09-19T07:28:41;12.02;;;2.88;;
52948;SDS011;38812;50.942;3.644;2023-09-19T07:31:06;14.52;;;3.97;;
52948;SDS011;38812;50.942;3.644;2023-09-19T07:33:35;15.50;;;3.05;;
52948;SDS011;38812;50.942;3.644;2023-09-19T07:36:01;15.10;;;2.72;;
52948;SDS011;38812;50.942;3.644;2023-09-19T07:38:27;13.80;;;2.40;;
52948;SDS011;38812;50.942;3.644;2023-09-19T07:40:52;14.52;;;3.55;;
52948;SDS011;38812;50.942;3.644;2023-09-19T07:43:18;14.73;;;3.33;;
52948;SDS011;38812;50.942;3.644;2023-09-19T07:45:43;22.92;;;4.63;;
52948;SDS011;38812;50.942;3.644;2023-09-19T07:48:09;18.30;;;2.67;;
52948;SDS011;38812;50.942;3.644;2023-09-19T07:50:39;18.30;;;2.75;;
52948;SDS011;38812;50.942;3.644;2023-09-19T07:53:05;15.57;;;2.38;;
52948;SDS011;38812;50.942;3.644;2023-09-19T07:55:30;13.00;;;2.58;;
52948;SDS011;38812;50.942;3.644;2023-09-19T07:57:58;16.40;;;3.30;;
52948;SDS011;38812;50.942;3.644;2023-09-19T08:00:24;16.00;;;3.15;;
52948;SDS011;38812;50.942;3.644;2023-09-19T08:02:49;20.50;;;3.17;;
52948;SDS011;38812;50.942;3.644;2023-09-19T08:05:16;12.80;;;2.60;;
52948;SDS011;38812;50.942;3.644;2023-09-19T08:07:43;13.32;;;2.33;;
52948;SDS011;38812;50.942;3.644;2023-09-19T08:10:17;14.35;;;3.03;;
52948;SDS011;38812;50.942;3.644;2023-09-19T08:12:45;13.57;;;2.45;;
52948;SDS011;38812;50.942;3.644;2023-09-19T08:15:14;12.68;;;3.22;;
52948;SDS011;38812;50.942;3.644;2023-09-19T08:17:41;10.55;;;2.50;;
52948;SDS011;38812;50.942;3.644;2023-09-19T08:20:08;10.98;;;2.63;;
52948;SDS011;38812;50.942;3.644;2023-09-19T08:22:41;14.05;;;2.63;;
52948;SDS011;38812;50.942;3.644;2023-09-19T08:25:07;16.23;;;2.33;;
52948;SDS011;38812;50.942;3.644;2023-09-19T08:27:33;10.75;;;2.80;;
52948;SDS011;38812;50.942;3.644;2023-09-19T08:29:59;15.93;;;3.20;;
52948;SDS011;38812;50.942;3.644;2023-09-19T08:32:24;11.00;;;2.50;;
52948;SDS011;38812;50.942;3.644;2023-09-19T08:34:52;13.93;;;2.67;;
52948;SDS011;38812;50.942;3.644;2023-09-19T08:37:17;10.90;;;2.00;;
52948;SDS011;38812;50.942;3.644;2023-09-19T08:39:43;13.35;;;2.28;;
52948;SDS011;38812;50.942;3.644;2023-09-19T08:42:09;20.00;;;3.13;;
52948;SDS011;38812;50.942;3.644;2023-09-19T08:44:36;14.10;;;2.67;;
52948;SDS011;38812;50.942;3.644;2023-09-19T08:47:12;16.13;;;2.78;;
52948;SDS011;38812;50.942;3.644;2023-09-19T08:49:41;12.80;;;2.40;;
52948;SDS011;38812;50.942;3.644;2023-09-19T08:52:20;14.50;;;2.42;;
52948;SDS011;38812;50.942;3.644;2023-09-19T08:54:47;12.32;;;2.22;;
52948;SDS011;38812;50.942;3.644;2023-09-19T08:57:16;13.70;;;2.65;;
52948;SDS011;38812;50.942;3.644;2023-09-19T08:59:46;11.65;;;2.40;;
52948;SDS011;38812;50.942;3.644;2023-09-19T09:02:16;14.68;;;2.97;;
52948;SDS011;38812;50.942;3.644;2023-09-19T09:04:44;6.95;;;1.88;;
52948;SDS011;38812;50.942;3.644;2023-09-19T09:07:11;14.23;;;2.65;;
52948;SDS011;38812;50.942;3.644;2023-09-19T09:09:41;13.45;;;2.17;;
52948;SDS011;38812;50.942;3.644;2023-09-19T09:12:08;11.32;;;2.17;;
52948;SDS011;38812;50.942;3.644;2023-09-19T09:14:38;8.18;;;1.80;;
52948;SDS011;38812;50.942;3.644;2023-09-19T09:17:17;13.20;;;2.15;;
52948;SDS011;38812;50.942;3.644;2023-09-19T09:19:45;11.85;;;2.03;;
52948;SDS011;38812;50.942;3.644;2023-09-19T09:22:12;12.23;;;1.92;;
52948;SDS011;38812;50.942;3.644;2023-09-19T09:24:38;7.85;;;1.83;;
52948;SDS011;38812;50.942;3.644;2023-09-19T09:27:18;16.30;;;3.38;;
52948;SDS011;38812;50.942;3.644;2023-09-19T09:29:48;9.35;;;1.58;;
52948;SDS011;38812;50.942;3.644;2023-09-19T09:35:08;13.60;;;2.03;;
52948;SDS011;38812;50.942;3.644;2023-09-19T09:37:35;5.97;;;2.00;;
52948;SDS011;38812;50.942;3.644;2023-09-19T09:40:03;5.55;;;1.85;;
52948;SDS011;38812;50.942;3.644;2023-09-19T09:42:55;9.63;;;1.77;;
52948;SDS011;38812;50.942;3.644;2023-09-19T09:45:24;12.85;;;1.98;;
52948;SDS011;38812;50.942;3.644;2023-09-19T09:47:59;10.32;;;2.00;;
52948;SDS011;38812;50.942;3.644;2023-09-19T09:50:35;12.85;;;2.20;;
52948;SDS011;38812;50.942;3.644;2023-09-19T09:53:05;7.38;;;1.63;;
52948;SDS011;38812;50.942;3.644;2023-09-19T09:56:00;8.10;;;1.55;;
52948;SDS011;38812;50.942;3.644;2023-09-19T10:00:59;10.27;;;1.70;;
52948;SDS011;38812;50.942;3.644;2023-09-19T10:03:34;9.63;;;2.22;;
52948;SDS011;38812;50.942;3.644;2023-09-19T10:06:05;7.25;;;1.70;;
52948;SDS011;38812;50.942;3.644;2023-09-19T10:09:05;10.75;;;1.60;;
52948;SDS011;38812;50.942;3.644;2023-09-19T10:11:34;7.75;;;1.67;;
52948;SDS011;38812;50.942;3.644;2023-09-19T10:14:02;8.23;;;1.60;;
52948;SDS011;38812;50.942;3.644;2023-09-19T10:16:31;14.98;;;1.80;;
52948;SDS011;38812;50.942;3.644;2023-09-19T10:18:58;7.45;;;1.20;;
52948;SDS011;38812;50.942;3.644;2023-09-19T10:21:28;7.63;;;1.25;;
52948;SDS011;38812;50.942;3.644;2023-09-19T10:23:55;9.25;;;1.50;;
52948;SDS011;38812;50.942;3.644;2023-09-19T10:26:24;7.93;;;1.10;;
52948;SDS011;38812;50.942;3.644;2023-09-19T10:28:56;7.05;;;1.40;;
52948;SDS011;38812;50.942;3.644;2023-09-19T10:31:24;4.63;;;1.10;;
52948;SDS011;38812;50.942;3.644;2023-09-19T10:33:52;9.18;;;1.40;;
52948;SDS011;38812;50.942;3.644;2023-09-19T10:36:20;3.10;;;1.15;;
52948;SDS011;38812;50.942;3.644;2023-09-19T10:38:50;4.18;;;0.98;;
52948;SDS011;38812;50.942;3.644;2023-09-19T10:41:21;3.53;;;1.00;;
52948;SDS011;38812;50.942;3.644;2023-09-19T10:43:48;6.38;;;1.45;;
52948;SDS011;38812;50.942;3.644;2023-09-19T10:46:13;3.58;;;1.10;;
52948;SDS011;38812;50.942;3.644;2023-09-19T10:48:40;8.05;;;1.33;;
52948;SDS011;38812;50.942;3.644;2023-09-19T10:51:15;6.32;;;1.58;;
52948;SDS011;38812;50.942;3.644;2023-09-19T10:53:48;5.10;;;1.40;;
52948;SDS011;38812;50.942;3.644;2023-09-19T10:56:26;11.87;;;1.30;;
52948;SDS011;38812;50.942;3.644;2023-09-19T10:59:05;6.80;;;1.30;;
52948;SDS011;38812;50.942;3.644;2023-09-19T11:01:43;4.82;;;1.10;;
52948;SDS011;38812;50.942;3.644;2023-09-19T11:04:28;4.30;;;0.80;;
52948;SDS011;38812;50.942;3.644;2023-09-19T11:07:05;5.50;;;1.08;;
52948;SDS011;38812;50.942;3.644;2023-09-19T11:12:12;2.70;;;1.03;;
52948;SDS011;38812;50.942;3.644;2023-09-19T11:15:00;3.70;;;0.98;;
52948;SDS011;38812;50.942;3.644;2023-09-19T11:46:25;7.28;;;1.63;;
52948;SDS011;38812;50.942;3.644;2023-09-19T11:48:53;13.80;;;1.58;;
52948;SDS011;38812;50.942;3.644;2023-09-19T11:51:23;7.63;;;1.52;;
52948;SDS011;38812;50.942;3.644;2023-09-19T11:53:56;6.45;;;1.00;;
52948;SDS011;38812;50.942;3.644;2023-09-19T11:56:25;8.63;;;1.58;;
52948;SDS011;38812;50.942;3.644;2023-09-19T11:58:53;8.23;;;1.30;;
52948;SDS011;38812;50.942;3.644;2023-09-19T12:01:24;4.93;;;1.08;;
52948;SDS011;38812;50.942;3.644;2023-09-19T12:03:54;7.63;;;1.40;;
52948;SDS011;38812;50.942;3.644;2023-09-19T12:06:23;5.72;;;1.25;;
52948;SDS011;38812;50.942;3.644;2023-09-19T12:08:52;6.03;;;1.35;;
52948;SDS011;38812;50.942;3.644;2023-09-19T12:11:26;7.57;;;1.45;;
52948;SDS011;38812;50.942;3.644;2023-09-19T12:13:54;6.47;;;1.15;;
52948;SDS011;38812;50.942;3.644;2023-09-19T12:16:23;8.27;;;1.48;;
52948;SDS011;38812;50.942;3.644;2023-09-19T12:18:50;6.65;;;1.58;;
52948;SDS011;38812;50.942;3.644;2023-09-19T12:23:57;11.15;;;1.75;;
52948;SDS011;38812;50.942;3.644;2023-09-19T12:26:44;10.27;;;2.60;;
52948;SDS011;38812;50.942;3.644;2023-09-19T12:29:16;4.10;;;1.38;;
52948;SDS011;38812;50.942;3.644;2023-09-19T12:31:47;6.82;;;2.08;;
52948;SDS011;38812;50.942;3.644;2023-09-19T12:34:16;5.22;;;1.65;;
52948;SDS011;38812;50.942;3.644;2023-09-19T12:36:44;3.58;;;1.15;;
52948;SDS011;38812;50.942;3.644;2023-09-19T12:39:10;7.60;;;1.50;;
52948;SDS011;38812;50.942;3.644;2023-09-19T12:41:36;9.57;;;1.45;;
52948;SDS011;38812;50.942;3.644;2023-09-19T12:44:02;6.32;;;1.63;;
52948;SDS011;38812;50.942;3.644;2023-09-19T12:46:34;22.13;;;1.73;;
52948;SDS011;38812;50.942;3.644;2023-09-19T12:49:17;5.20;;;1.48;;
52948;SDS011;38812;50.942;3.644;2023-09-19T12:51:44;6.03;;;1.42;;
52948;SDS011;38812;50.942;3.644;2023-09-19T12:54:10;4.47;;;1.50;;
52948;SDS011;38812;50.942;3.644;2023-09-19T12:56:39;6.75;;;1.58;;
52948;SDS011;38812;50.942;3.644;2023-09-19T12:59:09;5.85;;;1.40;;
52948;SDS011;38812;50.942;3.644;2023-09-19T13:01:39;10.15;;;1.63;;
52948;SDS011;38812;50.942;3.644;2023-09-19T13:04:15;6.35;;;1.40;;
52948;SDS011;38812;50.942;3.644;2023-09-19T13:06:44;3.15;;;1.40;;
52948;SDS011;38812;50.942;3.644;2023-09-19T13:09:11;7.15;;;1.52;;
52948;SDS011;38812;50.942;3.644;2023-09-19T13:11:37;5.68;;;1.23;;
52948;SDS011;38812;50.942;3.644;2023-09-19T13:16:57;4.15;;;1.35;;
52948;SDS011;38812;50.942;3.644;2023-09-19T13:27:33;7.85;;;1.20;;
52948;SDS011;38812;50.942;3.644;2023-09-19T13:29:59;4.68;;;1.13;;
52948;SDS011;38812;50.942;3.644;2023-09-19T13:32:25;3.78;;;1.30;;
52948;SDS011;38812;50.942;3.644;2023-09-19T13:34:51;5.35;;;1.60;;
52948;SDS011;38812;50.942;3.644;2023-09-19T13:37:16;8.48;;;1.50;;
52948;SDS011;38812;50.942;3.644;2023-09-19T13:39:43;6.30;;;1.38;;
52948;SDS011;38812;50.942;3.644;2023-09-19T13:42:12;6.28;;;2.28;;
52948;SDS011;38812;50.942;3.644;2023-09-19T13:44:38;5.78;;;1.10;;
52948;SDS011;38812;50.942;3.644;2023-09-19T13:47:04;7.78;;;1.75;;
52948;SDS011;38812;50.942;3.644;2023-09-19T13:49:34;9.00;;;2.22;;
52948;SDS011;38812;50.942;3.644;2023-09-19T13:52:00;6.18;;;1.65;;
52948;SDS011;38812;50.942;3.644;2023-09-19T13:54:28;4.57;;;1.40;;
52948;SDS011;38812;50.942;3.644;2023-09-19T13:56:54;10.35;;;1.60;;
52948;SDS011;38812;50.942;3.644;2023-09-19T13:59:20;7.90;;;1.90;;
52948;SDS011;38812;50.942;3.644;2023-09-19T14:01:46;5.88;;;1.42;;
52948;SDS011;38812;50.942;3.644;2023-09-19T14:04:11;5.85;;;1.60;;
52948;SDS011;38812;50.942;3.644;2023-09-19T14:06:37;5.00;;;1.60;;
52948;SDS011;38812;50.942;3.644;2023-09-19T14:09:02;7.63;;;2.10;;
52948;SDS011;38812;50.942;3.644;2023-09-19T14:11:29;6.05;;;1.15;;
52948;SDS011;38812;50.942;3.644;2023-09-19T14:13:54;9.82;;;1.90;;
52948;SDS011;38812;50.942;3.644;2023-09-19T14:16:19;5.30;;;1.90;;
52948;SDS011;38812;50.942;3.644;2023-09-19T14:18:47;6.43;;;1.75;;
52948;SDS011;38812;50.942;3.644;2023-09-19T14:21:13;5.18;;;1.80;;
52948;SDS011;38812;50.942;3.644;2023-09-19T14:23:39;8.48;;;3.22;;
52948;SDS011;38812;50.942;3.644;2023-09-19T14:26:06;10.60;;;2.90;;
52948;SDS011;38812;50.942;3.644;2023-09-19T14:28:32;8.13;;;2.20;;
52948;SDS011;38812;50.942;3.644;2023-09-19T14:31:04;7.20;;;1.98;;
52948;SDS011;38812;50.942;3.644;2023-09-19T14:33:34;9.45;;;2.10;;
52948;SDS011;38812;50.942;3.644;2023-09-19T14:36:03;11.27;;;1.75;;
52948;SDS011;38812;50.942;3.644;2023-09-19T14:38:31;6.57;;;1.52;;
52948;SDS011;38812;50.942;3.644;2023-09-19T14:41:00;10.85;;;2.97;;
52948;SDS011;38812;50.942;3.644;2023-09-19T14:43:27;9.73;;;2.20;;
52948;SDS011;38812;50.942;3.644;2023-09-19T14:45:54;3.83;;;1.73;;
52948;SDS011;38812;50.942;3.644;2023-09-19T14:48:19;9.57;;;1.95;;
52948;SDS011;38812;50.942;3.644;2023-09-19T14:50:44;19.80;;;2.33;;
52948;SDS011;38812;50.942;3.644;2023-09-19T14:53:10;4.00;;;1.40;;
52948;SDS011;38812;50.942;3.644;2023-09-19T14:55:37;10.10;;;1.92;;
52948;SDS011;38812;50.942;3.644;2023-09-19T14:58:06;8.20;;;2.88;;
52948;SDS011;38812;50.942;3.644;2023-09-19T15:00:32;5.60;;;1.92;;
52948;SDS011;38812;50.942;3.644;2023-09-19T15:03:00;9.60;;;2.70;;
52948;SDS011;38812;50.942;3.644;2023-09-19T15:05:25;9.30;;;2.30;;
52948;SDS011;38812;50.942;3.644;2023-09-19T15:07:50;4.63;;;1.70;;
52948;SDS011;38812;50.942;3.644;2023-09-19T15:10:16;6.20;;;1.58;;
52948;SDS011;38812;50.942;3.644;2023-09-19T15:12:43;5.85;;;1.75;;
52948;SDS011;38812;50.942;3.644;2023-09-19T15:15:08;10.57;;;2.05;;
52948;SDS011;38812;50.942;3.644;2023-09-19T15:17:35;8.90;;;2.28;;
52948;SDS011;38812;50.942;3.644;2023-09-19T15:20:01;16.25;;;3.03;;
52948;SDS011;38812;50.942;3.644;2023-09-19T15:22:28;10.07;;;2.28;;
52948;SDS011;38812;50.942;3.644;2023-09-19T15:24:53;6.75;;;1.70;;
52948;SDS011;38812;50.942;3.644;2023-09-19T15:27:18;5.50;;;2.28;;
52948;SDS011;38812;50.942;3.644;2023-09-19T15:29:44;9.30;;;2.25;;
52948;SDS011;38812;50.942;3.644;2023-09-19T15:32:11;10.48;;;2.72;;
52948;SDS011;38812;50.942;3.644;2023-09-19T15:34:36;9.70;;;2.20;;
52948;SDS011;38812;50.942;3.644;2023-09-19T15:37:02;8.00;;;2.28;;
52948;SDS011;38812;50.942;3.644;2023-09-19T15:39:29;11.57;;;2.20;;
52948;SDS011;38812;50.942;3.644;2023-09-19T15:41:58;7.95;;;1.90;;
52948;SDS011;38812;50.942;3.644;2023-09-19T15:44:24;9.55;;;2.15;;
52948;SDS011;38812;50.942;3.644;2023-09-19T15:46:51;8.20;;;2.22;;
52948;SDS011;38812;50.942;3.644;2023-09-19T15:49:17;9.90;;;1.88;;
52948;SDS011;38812;50.942;3.644;2023-09-19T15:51:42;9.98;;;3.10;;
52948;SDS011;38812;50.942;3.644;2023-09-19T15:54:11;12.98;;;2.20;;
52948;SDS011;38812;50.942;3.644;2023-09-19T15:56:44;11.52;;;2.40;;